createdAt,value
2022-07-31T00:00:27.827Z,19.3
2022-07-31T00:05:30.213Z,19.4
2022-07-31T00:10:32.831Z,19.2
2022-07-31T00:15:35.592Z,19.1
2022-07-31T00:20:38.859Z,19
2022-07-31T00:25:41.831Z,18.9
2022-07-31T00:30:44.474Z,18.8
2022-07-31T00:35:47.665Z,18.8
2022-07-31T00:40:50.114Z,18.8
2022-07-31T00:46:01.275Z,18.7
2022-07-31T00:50:54.221Z,18.6
2022-07-31T00:55:56.560Z,18.5
2022-07-31T01:00:59.449Z,18.5
2022-07-31T01:06:02.252Z,18.4
2022-07-31T01:11:04.899Z,18.4
2022-07-31T01:16:07.438Z,18.3
2022-07-31T01:21:10.199Z,18.3
2022-07-31T01:26:15.248Z,18.3
2022-07-31T01:31:30.676Z,18.2
2022-07-31T01:36:23.091Z,18.2
2022-07-31T01:41:25.696Z,18.1
2022-07-31T01:46:28.338Z,18.1
2022-07-31T01:51:31.397Z,18
2022-07-31T01:56:33.862Z,17.9
2022-07-31T02:06:38.161Z,18.1
2022-07-31T02:11:56.386Z,18.2
2022-07-31T02:16:49.140Z,18.2
2022-07-31T02:21:51.801Z,18.3
2022-07-31T02:26:54.107Z,18.3
2022-07-31T02:32:05.746Z,18.1
2022-07-31T02:36:59.169Z,18.3
2022-07-31T02:42:02.549Z,18.2
2022-07-31T02:47:05.716Z,18.2
2022-07-31T02:52:09.081Z,18.2
2022-07-31T02:57:11.394Z,18.2
2022-07-31T03:02:13.833Z,18.2
2022-07-31T03:07:16.728Z,18.2
2022-07-31T03:12:19.460Z,18.4
2022-07-31T03:17:21.760Z,18.4
2022-07-31T03:22:24.469Z,18.5
2022-07-31T03:27:26.844Z,18.3
2022-07-31T03:32:29.517Z,18.4
2022-07-31T03:37:31.907Z,18.3
2022-07-31T03:42:34.562Z,18.7
2022-07-31T03:47:36.999Z,18.7
2022-07-31T03:52:39.388Z,18.9
2022-07-31T03:57:45.158Z,19
2022-07-31T04:02:51.426Z,18.9
2022-07-31T04:07:54.477Z,19
2022-07-31T04:12:57.201Z,19.2
2022-07-31T04:17:59.863Z,19.4
2022-07-31T04:23:03.139Z,19.4
2022-07-31T04:28:08.778Z,19.4
2022-07-31T04:33:11.145Z,19.4
2022-07-31T04:38:14.140Z,19.8
2022-07-31T04:43:17.282Z,19.9
2022-07-31T04:48:19.738Z,19.9
2022-07-31T04:53:24.368Z,20.3
2022-07-31T04:58:27.230Z,20.7
2022-07-31T05:03:30.719Z,20.6
2022-07-31T05:08:33.072Z,20.8
2022-07-31T05:13:35.602Z,20.5
2022-07-31T05:18:38.381Z,20.9
2022-07-31T05:23:40.788Z,20.8
2022-07-31T05:28:47.680Z,20.8
2022-07-31T05:33:50.815Z,20.8
2022-07-31T05:38:53.465Z,20.7
2022-07-31T05:43:56.552Z,20.8
2022-07-31T05:48:59.768Z,20.8
2022-07-31T05:54:03.123Z,20.6
2022-07-31T05:59:06.197Z,20.6
2022-07-31T06:04:08.772Z,20.5
2022-07-31T06:09:11.568Z,20.5
2022-07-31T06:14:14.144Z,20.5
2022-07-31T06:19:16.849Z,21.1
2022-07-31T06:24:27.557Z,21.1
2022-07-31T06:29:44.368Z,21
2022-07-31T06:34:36.925Z,20.9
2022-07-31T06:39:57.796Z,21.5
2022-07-31T06:44:48.316Z,21.6
2022-07-31T06:49:50.659Z,21.6
2022-07-31T06:54:52.951Z,21.6
2022-07-31T06:59:55.512Z,21.5
2022-07-31T07:05:08.484Z,21.1
2022-07-31T07:10:01.046Z,21.1
2022-07-31T07:15:03.396Z,21.6
2022-07-31T07:20:06.096Z,21.8
2022-07-31T07:25:08.536Z,21.8
2022-07-31T07:35:11.744Z,21.2
2022-07-31T07:40:16.774Z,21.1
2022-07-31T07:45:22.360Z,22.1
2022-07-31T07:50:31.125Z,21.9
2022-07-31T07:55:39.483Z,22
2022-07-31T08:00:42.161Z,22
2022-07-31T08:05:45.055Z,21.8
2022-07-31T08:10:47.580Z,21.7
2022-07-31T08:15:51.441Z,21.9
2022-07-31T08:20:54.176Z,22.5
2022-07-31T08:25:59.779Z,23.3
2022-07-31T08:31:03.713Z,23.4
2022-07-31T08:41:07.437Z,23.4
2022-07-31T08:46:10.283Z,23.1
2022-07-31T08:51:12.693Z,22.9
2022-07-31T08:56:15.178Z,23.1
2022-07-31T09:01:18.027Z,23
2022-07-31T09:06:20.669Z,23
2022-07-31T09:11:23.866Z,23.7
2022-07-31T09:16:32.858Z,23.6
2022-07-31T09:21:35.760Z,23.4
2022-07-31T09:26:38.187Z,23.4
2022-07-31T09:31:40.804Z,23.4
2022-07-31T09:36:43.525Z,23.8
2022-07-31T09:42:18.375Z,24.3
2022-07-31T09:46:52.622Z,24.2
2022-07-31T09:51:55.283Z,24.2
2022-07-31T09:56:57.823Z,24.1
2022-07-31T10:02:00.470Z,26.1
2022-07-31T10:07:04.411Z,26.8
2022-07-31T10:12:09.144Z,26.4
2022-07-31T10:17:08.571Z,25.7
2022-07-31T10:22:11.236Z,26
2022-07-31T10:27:15.861Z,27.9
2022-07-31T10:32:19.749Z,28
2022-07-31T10:37:22.259Z,28
2022-07-31T10:42:25.147Z,29.5
2022-07-31T10:47:28.090Z,28.7
2022-07-31T10:52:30.839Z,28.6
2022-07-31T10:57:33.149Z,27.5
2022-07-31T11:02:35.510Z,26
2022-07-31T11:07:38.313Z,26.2
2022-07-31T11:12:41.983Z,27.3
2022-07-31T11:18:34.307Z,28.8
2022-07-31T11:22:46.900Z,28.6
2022-07-31T11:27:49.815Z,28
2022-07-31T11:32:52.305Z,28
2022-07-31T11:38:01.034Z,28
2022-07-31T11:43:27.736Z,27.5
2022-07-31T11:48:19.129Z,26.4
2022-07-31T11:53:12.048Z,27.9
2022-07-31T11:58:14.397Z,27.8
2022-07-31T12:03:17.302Z,26.6
2022-07-31T12:08:19.952Z,26.1
2022-07-31T12:13:22.751Z,25.6
2022-07-31T12:18:27.763Z,25.9
2022-07-31T12:23:43.165Z,26
2022-07-31T12:28:35.756Z,25.8
2022-07-31T12:33:38.368Z,25.8
2022-07-31T12:38:49.410Z,25.2
2022-07-31T12:43:53.910Z,25
2022-07-31T12:48:48.347Z,26.7
2022-07-31T12:53:51.509Z,27.3
2022-07-31T12:58:54.078Z,26.8
2022-07-31T13:03:58.162Z,26
2022-07-31T13:09:01.425Z,25.5
2022-07-31T13:14:06.731Z,25.7
2022-07-31T13:19:11.111Z,25.6
2022-07-31T13:24:13.975Z,25
2022-07-31T13:29:16.587Z,24.9
2022-07-31T13:34:19.181Z,24.7
2022-07-31T13:39:21.756Z,24.8
2022-07-31T13:44:24.441Z,24.4
2022-07-31T13:49:27.365Z,24.6
2022-07-31T13:54:30.628Z,24.1
2022-07-31T13:59:33.110Z,24.1
2022-07-31T14:04:40.993Z,23.9
2022-07-31T14:09:57.235Z,23.9
2022-07-31T14:14:49.721Z,23.9
2022-07-31T14:19:53.736Z,23.9
2022-07-31T14:24:56.357Z,23.3
2022-07-31T14:29:59.267Z,23
2022-07-31T14:35:09.411Z,23.2
2022-07-31T14:40:01.788Z,23.2
2022-07-31T14:45:05.138Z,23
2022-07-31T14:50:19.015Z,23.4
2022-07-31T14:55:12.262Z,23.9
2022-07-31T15:00:15.517Z,23.9
2022-07-31T15:07:34.575Z,23.9
2022-07-31T15:10:21.251Z,24
2022-07-31T15:15:33.659Z,24.1
2022-07-31T15:20:36.232Z,24.1
2022-07-31T15:25:38.980Z,23.1
2022-07-31T15:30:42.358Z,22.9
2022-07-31T15:35:45.363Z,22.6
2022-07-31T15:40:47.926Z,22.2
2022-07-31T15:45:50.243Z,22.2
2022-07-31T15:50:53.280Z,22.3
2022-07-31T15:55:57.219Z,22.2
2022-07-31T16:01:00.297Z,21.9
2022-07-31T16:06:03.329Z,21.7
2022-07-31T16:11:06.641Z,21.8
2022-07-31T16:16:08.985Z,21.7
2022-07-31T16:21:11.417Z,21.7
2022-07-31T16:26:13.783Z,21.7
2022-07-31T16:31:32.683Z,21.7
2022-07-31T16:36:24.949Z,21.7
2022-07-31T16:41:27.976Z,21.8
2022-07-31T16:46:30.255Z,21.8
2022-07-31T16:51:32.862Z,21.7
2022-07-31T16:56:35.362Z,21.6
2022-07-31T17:02:02.676Z,21.5
2022-07-31T17:06:45.397Z,21.4
2022-07-31T17:11:48.540Z,21.3
2022-07-31T17:16:51.840Z,21.4
2022-07-31T17:21:54.563Z,21.3
2022-07-31T17:26:58.248Z,21.3
2022-07-31T17:32:00.926Z,21.3
2022-07-31T17:37:04.361Z,21.2
2022-07-31T17:42:10.355Z,21.1
2022-07-31T17:47:13.974Z,21.1
2022-07-31T17:52:17.273Z,21
2022-07-31T17:57:23.660Z,21
2022-07-31T18:02:26.869Z,20.9
2022-07-31T18:07:29.305Z,20.9
2022-07-31T18:12:59.551Z,20.9
2022-07-31T18:17:31.880Z,20.9
2022-07-31T18:22:51.781Z,20.8
2022-07-31T18:27:44.472Z,20.6
2022-07-31T18:32:46.805Z,20.6
2022-07-31T18:37:49.088Z,20.6
2022-07-31T18:42:51.383Z,20.6
2022-07-31T18:47:54.128Z,20.4
2022-07-31T18:52:56.421Z,20.3
2022-07-31T18:58:01.490Z,20.2
2022-07-31T19:03:07.450Z,20.3
2022-07-31T19:08:09.698Z,20.3
2022-07-31T19:13:21.301Z,20.1
2022-07-31T19:18:16.522Z,20.1
2022-07-31T19:23:19.508Z,20
2022-07-31T19:28:28.268Z,19.7
2022-07-31T19:33:31.901Z,19.4
2022-07-31T19:38:34.435Z,19.4
2022-07-31T19:43:37.495Z,19.1
2022-07-31T19:48:40.964Z,19.1
2022-07-31T19:53:44.145Z,19
2022-07-31T19:58:46.548Z,19
2022-07-31T20:03:49.564Z,19
2022-07-31T20:08:52.948Z,18.9
2022-07-31T20:13:56.044Z,19.1
2022-07-31T20:18:58.671Z,19
2022-07-31T20:24:02.342Z,19.1
2022-07-31T20:29:05.108Z,19.2
2022-07-31T20:34:07.639Z,19.1
2022-07-31T20:39:10.387Z,19.3
2022-07-31T20:44:12.964Z,19.2
2022-07-31T20:49:37.034Z,19.2
2022-07-31T20:54:36.179Z,19.1
2022-07-31T20:59:29.779Z,19.1
2022-07-31T21:04:32.330Z,19.1
2022-07-31T21:09:34.694Z,19.1
2022-07-31T21:14:36.977Z,19.1
2022-07-31T21:19:39.664Z,19.3
2022-07-31T21:24:42.625Z,19.3
2022-07-31T21:29:45.430Z,19.3
2022-07-31T21:34:48.327Z,19.3
2022-07-31T21:39:51.289Z,19.3
2022-07-31T21:44:55.287Z,19.4
2022-07-31T21:50:00.815Z,19.1
2022-07-31T21:55:03.438Z,19
2022-07-31T22:00:07.624Z,18.9
2022-07-31T22:05:15.162Z,19.1
2022-07-31T22:10:17.453Z,19.2
2022-07-31T22:15:20.223Z,19.3
2022-07-31T22:20:22.838Z,19.3
2022-07-31T22:25:25.579Z,19.2
2022-07-31T22:35:31.897Z,19.2
2022-07-31T22:40:34.799Z,19.2
2022-07-31T22:45:37.147Z,19.1
2022-07-31T22:50:39.989Z,19.2
2022-07-31T22:55:42.503Z,19.2
2022-07-31T23:00:44.800Z,19.2
2022-07-31T23:06:33.934Z,19.1
2022-07-31T23:10:56.326Z,19.2
2022-07-31T23:16:00.770Z,19.1
2022-07-31T23:21:09.791Z,19
2022-07-31T23:26:12.871Z,19
2022-07-31T23:31:15.373Z,18.9
2022-07-31T23:36:17.655Z,18.8
2022-07-31T23:41:20.379Z,18.4
2022-07-31T23:46:28.955Z,18.2
2022-07-31T23:51:32.000Z,18.2
2022-07-31T23:56:34.285Z,18.1
